Time;durP1;ratioP1;P1;durP2;ratioP2;P2;SDS_P1;SDS_P2;PMS_P1;PMS_P2;Temp;Humidity;BMP_temperature;BMP_pressure;BME280_temperature;BME280_humidity;BME280_pressure;Samples;Min_cycle;Max_cycle;Signal;HPM_P1;HPM_P2
2022/07/14 00:02:05;;;;;;;6.35;5.03;;;11.90;1.00;;;12.44;100.00;98502.56;5020625;28;130366;-72
2022/07/14 00:04:35;;;;;;;10.13;5.28;;;11.90;1.00;;;12.38;100.00;98499.31;5021085;28;130220;-74
2022/07/14 00:07:04;;;;;;;7.40;4.85;;;11.80;1.00;;;12.34;100.00;98503.84;5006199;28;118368;-72
2022/07/14 00:09:33;;;;;;;7.65;5.43;;;11.70;1.00;;;12.35;100.00;98505.44;5021022;28;119314;-73
2022/07/14 00:12:02;;;;;;;6.97;4.72;;;11.70;1.00;;;12.33;100.00;98503.06;5020712;28;130480;-73
2022/07/14 00:14:30;;;;;;;7.57;5.40;;;11.60;1.00;;;12.31;100.00;98509.97;5002767;28;130009;-73
2022/07/14 00:16:59;;;;;;;6.13;5.07;;;11.60;1.00;;;12.27;100.00;98504.44;5020979;28;120020;-73
2022/07/14 00:19:29;;;;;;;6.90;4.57;;;11.50;1.00;;;12.15;100.00;98502.56;5019886;28;119615;-73
2022/07/14 00:22:02;;;;;;;7.45;5.43;;;11.40;1.00;;;12.07;100.00;98494.56;5019330;28;129868;-74
2022/07/14 00:24:30;;;;;;;8.93;5.07;;;11.40;1.00;;;11.99;100.00;98493.56;5002874;28;129506;-72
2022/07/14 00:26:59;;;;;;;8.73;5.10;;;11.40;1.00;;;11.99;100.00;98482.69;5002824;28;119928;-72
2022/07/14 00:29:28;;;;;;;8.02;5.40;;;11.30;1.00;;;11.92;100.00;98482.44;4999544;28;119524;-73
2022/07/14 00:31:57;;;;;;;10.43;6.10;;;11.30;1.00;;;11.87;100.00;98476.16;5016889;28;129891;-73
2022/07/14 00:34:26;;;;;;;6.80;5.15;;;11.30;1.00;;;11.82;100.00;98481.03;5018981;28;129601;-73
2022/07/14 00:36:54;;;;;;;8.07;5.57;;;11.20;4.10;;;11.77;100.00;98468.47;5019921;28;119626;-72
2022/07/14 00:39:24;;;;;;;6.53;5.10;;;11.30;58.50;;;11.74;100.00;98480.03;5006729;28;118814;-73
2022/07/14 00:41:53;;;;;;;9.45;4.97;;;11.20;57.60;;;11.76;100.00;98479.69;5005422;28;128715;-72
2022/07/14 00:44:21;;;;;;;9.32;6.13;;;11.20;74.00;;;11.75;100.00;98478.09;5020320;28;129674;-74
2022/07/14 00:47:09;;;;;;;8.95;5.60;;;11.20;67.50;;;11.72;100.00;98478.78;5018110;28;122270;-72
2022/07/14 00:49:39;;;;;;;7.20;5.40;;;11.10;70.10;;;11.70;100.00;98473.69;5022057;28;122144;-71
2022/07/14 00:52:07;;;;;;;10.18;6.03;;;11.20;56.00;;;11.67;100.00;98475.19;5020219;28;129877;-72
2022/07/14 00:54:38;;;;;;;9.35;6.50;;;11.10;54.40;;;11.64;100.00;98469.63;5001941;28;130023;-73
2022/07/14 00:57:06;;;;;;;8.63;6.63;;;11.10;63.70;;;11.64;100.00;98484.00;4988518;28;119291;-71
2022/07/14 00:59:35;;;;;;;8.18;5.40;;;11.00;56.10;;;11.65;100.00;98479.34;4988755;28;118856;-71
2022/07/14 01:02:04;;;;;;;10.07;5.95;;;11.00;50.30;;;11.61;100.00;98467.59;5019938;28;130059;-71
2022/07/14 01:04:32;;;;;;;8.68;6.10;;;11.00;58.50;;;11.54;100.00;98478.25;5002084;28;129638;-71
2022/07/14 01:07:01;;;;;;;8.93;5.80;;;10.90;61.60;;;11.50;100.00;98473.50;4988718;28;119664;-71
2022/07/14 01:09:30;;;;;;;7.68;5.25;;;10.90;77.70;;;11.43;100.00;98467.84;5019039;28;120001;-72
2022/07/14 01:12:02;;;;;;;7.22;5.05;;;10.90;99.90;;;11.35;100.00;98476.16;5018625;28;129984;-71
2022/07/14 01:14:30;;;;;;;8.02;5.57;;;10.90;99.90;;;11.32;100.00;98466.75;5019570;28;129528;-75
2022/07/14 01:16:59;;;;;;;7.35;5.38;;;10.90;99.90;;;11.30;100.00;98458.16;5018645;28;119910;-73
2022/07/14 01:19:28;;;;;;;8.30;5.35;;;10.80;99.90;;;11.30;100.00;98469.81;5002079;28;120532;-72
2022/07/14 01:21:59;;;;;;;7.95;6.20;;;10.80;99.90;;;11.35;100.00;98471.50;5004920;28;129130;-72
2022/07/14 01:24:28;;;;;;;7.68;5.70;;;10.80;99.90;;;11.37;100.00;98468.44;5001197;28;129266;-71
2022/07/14 01:26:58;;;;;;;8.38;5.53;;;10.80;99.90;;;11.33;100.00;98473.78;5018932;28;119590;-73
2022/07/14 01:29:27;;;;;;;10.85;6.63;;;10.90;99.90;;;11.29;100.00;98472.84;5020113;28;119735;-73
2022/07/14 01:31:55;;;;;;;14.48;6.20;;;10.80;99.90;;;11.29;100.00;98483.72;5001106;28;129364;-72
2022/07/14 01:34:24;;;;;;;8.13;5.38;;;10.80;99.90;;;11.33;100.00;98487.34;5001531;28;129639;-74
2022/07/14 01:36:53;;;;;;;8.85;5.53;;;10.80;99.90;;;11.34;100.00;98483.47;5017160;28;121952;-74
2022/07/14 01:39:24;;;;;;;8.52;5.90;;;10.80;99.90;;;11.38;100.00;98476.25;5010192;28;121709;-73
2022/07/14 01:41:52;;;;;;;8.07;5.30;;;10.80;99.90;;;11.39;100.00;98483.28;5001384;28;129721;-73
2022/07/14 01:44:22;;;;;;;9.65;5.75;;;10.70;99.90;;;11.43;100.00;98486.88;5001485;28;129500;-71
2022/07/14 01:46:51;;;;;;;8.32;6.05;;;10.70;99.90;;;11.44;100.00;98485.75;4988666;28;119109;-74
2022/07/14 01:49:22;;;;;;;8.05;5.13;;;10.70;99.90;;;11.39;100.00;98472.41;4984897;28;118679;-73
2022/07/14 01:51:51;;;;;;;8.05;5.53;;;10.70;99.90;;;11.35;100.00;98471.50;5001151;28;129781;-73
2022/07/14 01:54:24;;;;;;;12.32;6.15;;;10.70;99.90;;;11.32;100.00;98485.75;5018495;28;130183;-72
2022/07/14 01:56:53;;;;;;;9.20;5.88;;;10.70;99.90;;;11.32;100.00;98483.81;4987492;28;119250;-74
2022/07/14 01:59:22;;;;;;;7.90;6.00;;;10.70;99.90;;;11.31;100.00;98481.44;5001293;28;119406;-74
2022/07/14 02:01:51;;;;;;;7.78;5.65;;;10.70;99.90;;;11.35;100.00;98474.22;4999926;28;129889;-72
2022/07/14 02:04:21;;;;;;;7.50;5.35;;;10.70;99.90;;;11.39;100.00;98477.84;5000532;28;129905;-74
2022/07/14 02:06:52;;;;;;;10.93;5.45;;;10.80;99.90;;;11.38;100.00;98473.53;5018518;28;119628;-73
2022/07/14 02:12:41;;;;;;;7.20;4.93;;;10.70;99.90;;;11.43;100.00;98473.28;5017734;28;130041;-72
2022/07/14 02:15:12;;;;;;;7.05;4.35;;;10.80;99.90;;;11.57;100.00;98477.56;5001147;28;130218;-73
2022/07/14 02:17:41;;;;;;;10.18;5.88;;;10.90;99.90;;;11.68;100.00;98484.13;5001420;28;119870;-72
2022/07/14 02:20:11;;;;;;;8.20;5.22;;;10.90;99.90;;;11.78;100.00;98491.78;5001815;28;120347;-73
2022/07/14 02:22:40;;;;;;;6.72;4.30;;;11.00;99.90;;;11.83;100.00;98486.13;5001221;28;130621;-72
2022/07/14 02:25:13;;;;;;;7.13;4.20;;;11.10;99.90;;;11.97;100.00;98480.31;5018801;28;129703;-72
2022/07/14 02:27:42;;;;;;;6.50;4.15;;;11.20;99.90;;;12.16;100.00;98479.69;4986515;28;120827;-73
2022/07/14 02:30:11;;;;;;;6.07;4.57;;;11.40;97.40;;;12.43;100.00;98474.56;5019063;28;122172;-72
2022/07/14 02:32:40;;;;;;;6.45;4.20;;;11.60;99.90;;;12.66;100.00;98482.16;5001048;28;131937;-73
2022/07/14 02:35:09;;;;;;;6.60;4.57;;;11.80;99.90;;;12.82;100.00;98472.03;5000688;28;130120;-71
2022/07/14 02:37:37;;;;;;;7.70;4.32;;;11.90;85.30;;;12.91;100.00;98471.88;5005266;28;119559;-73
2022/07/14 02:40:10;;;;;;;6.80;4.25;;;12.00;5.40;;;13.07;100.00;98464.50;5021111;28;119442;-73
2022/07/14 02:42:39;;;;;;;6.20;3.78;;;12.10;1.00;;;13.27;100.00;98467.25;5007409;28;129573;-72
2022/07/14 02:45:09;;;;;;;8.20;3.95;;;12.30;1.00;;;13.41;100.00;98478.50;5004697;28;129891;-72
2022/07/14 02:47:39;;;;;;;5.22;3.90;;;12.40;1.00;;;13.47;100.00;98476.31;5007655;28;119723;-73
2022/07/14 02:50:09;;;;;;;5.55;3.80;;;12.50;1.00;;;13.57;100.00;98470.31;5021110;28;119573;-72
2022/07/14 02:52:41;;;;;;;6.10;3.88;;;12.60;1.00;;;13.68;100.00;98475.19;5022636;28;129864;-72
2022/07/14 02:55:11;;;;;;;7.88;4.40;;;12.80;1.00;;;13.72;100.00;98465.16;5021717;28;129054;-71
2022/07/14 02:57:44;;;;;;;9.45;4.88;;;13.00;1.00;;;13.70;100.00;98467.44;5021072;28;120111;-73
2022/07/14 03:00:13;;;;;;;7.85;5.68;;;13.00;1.00;;;13.66;100.00;98461.91;5007539;28;119218;-71
2022/07/14 03:02:43;;;;;;;14.10;6.32;;;13.10;1.00;;;13.66;100.00;98462.72;5004276;28;129950;-71
2022/07/14 03:05:12;;;;;;;9.82;6.57;;;13.10;1.00;;;13.67;100.00;98463.50;5020805;28;130982;-72
2022/07/14 03:07:41;;;;;;;10.63;7.55;;;13.10;1.00;;;13.70;100.00;98461.97;5020706;28;119518;-70
2022/07/14 03:10:11;;;;;;;8.68;6.82;;;13.20;1.00;;;13.73;100.00;98472.16;5022648;28;119155;-72
2022/07/14 03:12:40;;;;;;;9.55;7.25;;;13.20;1.00;;;13.89;100.00;98456.56;5021547;28;129956;-73
2022/07/14 03:15:09;;;;;;;10.05;7.13;;;13.30;1.00;;;14.01;100.00;98456.41;5003690;28;129924;-73
2022/07/14 03:17:39;;;;;;;9.63;7.38;;;13.40;1.00;;;14.16;100.00;98468.41;5005917;28;121789;-72
2022/07/14 03:20:10;;;;;;;10.95;7.05;;;13.50;1.00;;;14.13;100.00;98463.66;5022083;28;121593;-73
2022/07/14 03:22:39;;;;;;;12.98;7.68;;;13.50;1.00;;;14.24;100.00;98460.34;4990456;28;129319;-73
2022/07/14 03:25:17;;;;;;;9.90;7.68;;;13.60;1.00;;;14.33;100.00;98467.13;5023573;28;129346;-73
2022/07/14 03:27:46;;;;;;;11.23;8.13;;;13.60;1.00;;;14.49;100.00;98463.50;5006808;28;119360;-74
2022/07/14 03:30:17;;;;;;;11.32;7.43;;;13.70;1.00;;;14.58;100.00;98472.25;5023727;28;118644;-73
2022/07/14 03:32:46;;;;;;;12.00;8.18;;;13.80;1.00;;;14.65;100.00;98477.09;4989839;28;129687;-73
2022/07/14 03:35:14;;;;;;;11.65;7.78;;;13.80;1.00;;;14.67;100.00;98472.06;5021853;28;131004;-73
2022/07/14 03:37:43;;;;;;;14.57;9.35;;;13.90;1.00;;;14.73;100.00;98478.81;5006805;28;118607;-73
2022/07/14 03:40:13;;;;;;;10.35;8.07;;;13.90;1.00;;;14.74;100.00;98481.16;5006972;28;118501;-72
2022/07/14 03:42:44;;;;;;;11.00;7.90;;;13.90;1.00;;;14.81;100.00;98471.53;5018698;28;129967;-72
2022/07/14 03:45:13;;;;;;;12.05;7.55;;;14.00;1.00;;;14.97;100.00;98483.09;5020024;28;129978;-72
2022/07/14 03:47:42;;;;;;;10.07;7.70;;;14.10;1.00;;;14.98;100.00;98481.94;5003470;28;119672;-73
2022/07/14 03:50:11;;;;;;;9.95;7.85;;;14.20;1.00;;;15.10;100.00;98480.97;5022794;28;118664;-73
2022/07/14 03:52:40;;;;;;;12.23;8.18;;;14.30;1.00;;;15.17;100.00;98481.06;5003518;28;130658;-71
2022/07/14 03:55:10;;;;;;;10.27;7.75;;;14.40;1.00;;;15.15;100.00;98482.59;5005864;28;129515;-71
2022/07/14 03:57:40;;;;;;;10.82;8.48;;;14.30;1.00;;;15.07;100.00;98482.47;5003800;28;119720;-74
2022/07/14 04:00:12;;;;;;;11.70;8.65;;;14.30;1.00;;;15.21;100.00;98492.06;5020626;28;119144;-73
2022/07/14 04:02:45;;;;;;;11.30;7.53;;;14.40;1.00;;;15.37;100.00;98473.56;5020952;28;129960;-73
2022/07/14 04:05:23;;;;;;;9.65;7.38;;;14.50;1.00;;;15.52;100.00;98462.81;5007148;28;102597;-72
2022/07/14 04:07:53;;;;;;;10.75;7.47;;;14.60;1.00;;;15.76;100.00;98473.31;5001691;28;122444;-72
2022/07/14 04:10:23;;;;;;;9.13;6.55;;;14.70;1.00;;;15.87;100.00;98468.00;4978508;28;121713;-73
2022/07/14 04:12:51;;;;;;;7.97;6.28;;;14.80;1.00;;;16.10;100.00;98467.88;5014650;28;129636;-73
2022/07/14 04:15:21;;;;;;;8.48;5.72;;;14.90;1.00;;;16.25;100.00;98470.78;5002474;28;129783;-72
2022/07/14 04:17:50;;;;;;;8.43;5.78;;;15.00;1.00;;;16.39;100.00;98465.44;5019993;28;119729;-71
2022/07/14 04:20:19;;;;;;;8.02;5.60;;;15.10;1.00;;;16.48;100.00;98468.66;5003015;28;119917;-71
2022/07/14 04:22:48;;;;;;;7.53;5.10;;;15.10;1.00;;;16.63;100.00;98466.88;5002634;28;129737;-71
2022/07/14 04:25:16;;;;;;;6.45;4.57;;;15.30;1.00;;;16.74;100.00;98468.94;5006063;28;129394;-72
2022/07/14 04:27:46;;;;;;;7.35;5.30;;;15.20;1.00;;;16.81;100.00;98464.31;5002886;28;119671;-71
2022/07/14 04:30:16;;;;;;;5.55;4.15;;;15.30;1.00;;;16.97;100.00;98466.00;5022932;28;119073;-72
2022/07/14 04:32:46;;;;;;;5.85;4.28;;;15.50;1.00;;;17.31;100.00;98466.66;4987729;28;129628;-72
2022/07/14 04:35:17;;;;;;;6.55;4.20;;;15.60;1.00;;;17.50;100.00;98465.59;5002675;28;129502;-72
2022/07/14 04:37:47;;;;;;;6.38;3.70;;;15.80;99.90;;;17.82;100.00;98464.97;5005890;28;119451;-73
2022/07/14 04:40:38;;;;;;;5.97;4.30;;;16.00;99.90;;;17.91;100.00;98454.44;5023031;28;119569;-72
2022/07/14 04:43:07;;;;;;;5.38;3.92;;;16.00;99.90;;;18.00;100.00;98448.63;5005524;28;129722;-72
2022/07/14 04:45:37;;;;;;;5.65;4.38;;;16.20;99.90;;;18.10;100.00;98447.06;4985643;28;128601;-72
2022/07/14 04:48:08;;;;;;;5.97;4.28;;;16.30;99.90;;;18.16;100.00;98453.75;5017385;28;119796;-73
2022/07/14 04:53:24;;;;;;;6.20;4.22;;;16.20;99.90;;;18.02;100.00;98451.75;5000821;28;130101;-71
2022/07/14 04:56:02;;;;;;;9.15;3.78;;;16.20;99.90;;;17.94;100.00;98450.16;5021658;28;128897;-72
2022/07/14 04:58:39;;;;;;;5.35;4.07;;;16.00;99.90;;;17.79;100.00;98454.75;5017573;28;122555;-71
2022/07/14 05:01:08;;;;;;;5.88;3.90;;;16.10;99.90;;;17.69;100.00;98456.28;5004044;28;121561;-72
2022/07/14 05:03:44;;;;;;;7.00;4.32;;;16.00;99.90;;;17.52;100.00;98457.78;5018659;28;129939;-71
2022/07/14 05:06:13;;;;;;;5.93;4.40;;;15.90;99.90;;;17.42;100.00;98447.50;5004135;28;129899;-71
2022/07/14 05:08:43;;;;;;;5.47;4.28;;;15.80;99.90;;;17.36;100.00;98449.84;5002143;28;120078;-72
2022/07/14 05:11:12;;;;;;;7.45;4.40;;;15.90;99.90;;;17.38;100.00;98444.75;5004704;28;119927;-72
2022/07/14 05:13:41;;;;;;;6.97;4.57;;;16.00;99.90;;;17.42;100.00;98450.25;5001497;28;130166;-73
2022/07/14 05:16:10;;;;;;;7.60;4.90;;;16.00;99.90;;;17.36;100.00;98451.81;5020340;28;129967;-74
2022/07/14 05:18:39;;;;;;;6.78;4.25;;;16.00;99.90;;;17.36;100.00;98454.56;5001817;28;120303;-73
2022/07/14 05:21:10;;;;;;;6.72;4.72;;;16.10;99.90;;;17.42;100.00;98453.00;5022109;28;119693;-74
2022/07/14 05:23:38;;;;;;;8.48;4.93;;;16.10;99.90;;;17.56;100.00;98458.59;5018297;28;129807;-72
2022/07/14 05:26:12;;;;;;;7.13;4.55;;;16.20;99.90;;;17.72;100.00;98460.22;5004540;28;129789;-72
2022/07/14 05:28:41;;;;;;;8.40;5.50;;;16.20;99.90;;;17.72;100.00;98455.53;4985222;28;119129;-70
2022/07/14 05:31:10;;;;;;;7.32;5.78;;;16.20;99.90;;;17.66;100.00;98451.56;5018312;28;119302;-70
2022/07/14 05:33:42;;;;;;;9.80;6.32;;;16.00;99.90;;;17.63;100.00;98448.81;5017649;28;130215;-73
2022/07/14 05:36:12;;;;;;;11.00;6.90;;;16.10;99.90;;;17.54;100.00;98449.94;5004376;28;131035;-73
2022/07/14 05:38:41;;;;;;;12.07;8.57;;;16.00;99.90;;;17.34;100.00;98454.13;5004633;28;118689;-71
2022/07/14 05:41:10;;;;;;;17.85;9.13;;;15.90;99.90;;;17.22;100.00;98453.28;4988520;28;118780;-72
2022/07/14 05:43:39;;;;;;;18.15;10.80;;;16.00;99.90;;;17.21;100.00;98459.94;5019163;28;129890;-73
2022/07/14 05:46:11;;;;;;;14.35;10.18;;;16.00;99.90;;;17.21;100.00;98454.44;5018993;28;129610;-71
2022/07/14 05:48:42;;;;;;;18.60;10.48;;;16.00;99.90;;;17.32;100.00;98448.25;4986337;28;120852;-73
2022/07/14 05:51:16;;;;;;;14.60;9.75;;;16.10;99.90;;;17.41;100.00;98451.44;5001611;28;121869;-74
2022/07/14 05:53:49;;;;;;;15.23;9.18;;;16.20;99.90;;;17.43;100.00;98449.88;5017723;28;130447;-75
2022/07/14 05:56:21;;;;;;;16.50;10.20;;;16.30;99.90;;;17.41;100.00;98462.41;5021055;28;129037;-73
2022/07/14 05:58:49;;;;;;;15.23;9.73;;;16.20;99.90;;;17.40;100.00;98460.81;5034763;27;119523;-72
2022/07/14 06:01:20;;;;;;;13.05;9.05;;;16.20;99.90;;;17.36;100.00;98465.53;5020038;28;119165;-72
2022/07/14 06:03:54;;;;;;;15.85;10.15;;;16.10;99.90;;;17.18;100.00;98471.66;4986943;28;130410;-71
2022/07/14 06:06:25;;;;;;;21.20;10.45;;;16.00;99.90;;;16.98;100.00;98470.31;5000972;28;130089;-72
2022/07/14 06:08:55;;;;;;;12.13;9.70;;;16.00;99.90;;;16.95;100.00;98482.03;5001308;28;119717;-71
2022/07/14 06:11:25;;;;;;;13.95;9.27;;;15.90;99.90;;;16.96;100.00;98480.88;5000986;28;119162;-71
2022/07/14 06:13:53;;;;;;;16.52;10.25;;;16.00;99.90;;;17.01;100.00;98480.53;4988926;28;129555;-71
2022/07/14 06:16:23;;;;;;;14.05;10.18;;;16.00;99.90;;;17.05;100.00;98489.59;5004039;28;129724;-73
2022/07/14 06:18:51;;;;;;;14.90;11.02;;;16.10;99.90;;;17.05;100.00;98473.91;5008492;28;119429;-73
2022/07/14 06:21:20;;;;;;;15.90;10.18;;;16.20;99.90;;;17.20;100.00;98484.97;5008239;28;120629;-75
2022/07/14 06:23:53;;;;;;;15.68;10.48;;;16.30;99.90;;;17.48;100.00;98484.38;5007547;28;129473;-73
2022/07/14 06:26:22;;;;;;;13.88;10.25;;;16.50;99.90;;;17.61;100.00;98480.16;4990818;28;128648;-73
2022/07/14 06:28:52;;;;;;;19.38;10.95;;;16.50;99.90;;;17.40;100.00;98482.78;5007579;28;119263;-78
2022/07/14 06:31:21;;;;;;;17.02;10.70;;;16.40;99.90;;;17.44;100.00;98483.59;5005527;28;120355;-73
2022/07/14 06:33:50;;;;;;;15.20;11.27;;;16.40;99.90;;;17.52;100.00;98496.16;5007174;28;130105;-75
2022/07/14 06:36:51;;;;;;;17.27;10.65;;;16.40;99.90;;;17.59;100.00;98492.66;4984339;28;128942;-75
2022/07/14 06:39:21;;;;;;;12.13;9.90;;;16.50;99.90;;;17.47;100.00;98496.53;5006357;28;121546;-76
2022/07/14 06:41:52;;;;;;;14.93;11.13;;;16.30;99.90;;;17.39;100.00;98489.41;5007914;28;121380;-77
2022/07/14 06:44:25;;;;;;;15.90;11.05;;;16.30;99.90;;;17.53;100.00;98495.00;5037973;27;130288;-76
2022/07/14 06:46:56;;;;;;;13.23;10.65;;;16.40;99.90;;;17.52;100.00;98496.16;5040733;27;129109;-72
2022/07/14 06:49:25;;;;;;;13.80;9.82;;;16.40;99.90;;;17.50;100.00;98497.72;5004380;28;119679;-74
2022/07/14 06:51:54;;;;;;;12.88;10.25;;;16.30;99.90;;;17.57;100.00;98493.06;5007371;28;118630;-74
2022/07/14 06:54:25;;;;;;;18.50;11.20;;;16.40;99.90;;;17.64;100.00;98497.00;5021289;28;130110;-74
2022/07/14 06:56:54;;;;;;;16.17;10.60;;;16.50;99.90;;;17.75;100.00;98497.88;5006381;28;129229;-73
2022/07/14 06:59:23;;;;;;;15.18;10.70;;;16.60;99.90;;;17.67;100.00;98496.25;5022429;28;119982;-73
2022/07/14 07:01:52;;;;;;;16.15;10.73;;;16.50;99.90;;;17.67;100.00;98507.22;5022589;28;119539;-75
2022/07/14 07:04:20;;;;;;;12.18;9.75;;;16.50;99.90;;;17.74;100.00;98490.81;5005806;28;129328;-74
2022/07/14 07:06:48;;;;;;;13.75;9.73;;;16.40;99.90;;;17.90;100.00;98499.56;5003901;28;129501;-76
2022/07/14 07:09:18;;;;;;;14.25;9.23;;;16.60;99.90;;;18.25;100.00;98498.13;5022142;28;119197;-74
2022/07/14 07:11:50;;;;;;;16.45;9.52;;;16.80;99.90;;;18.69;99.53;98488.78;5022248;28;119598;-77
2022/07/14 07:14:20;;;;;;;13.30;9.25;;;17.10;99.90;;;18.77;97.21;98497.06;5021597;28;130588;-76
2022/07/14 07:16:50;;;;;;;18.00;10.80;;;17.10;99.90;;;18.86;97.02;98492.00;5021263;28;130516;-77
2022/07/14 07:19:19;;;;;;;20.17;14.70;;;17.20;99.90;;;19.01;96.33;98493.56;5004171;28;119889;-75
2022/07/14 07:21:48;;;;;;;17.60;11.80;;;17.20;99.90;;;19.19;95.28;98495.53;5022327;28;120197;-76
2022/07/14 07:24:17;;;;;;;19.85;12.18;;;17.30;99.90;;;19.33;94.43;98498.25;5012288;28;129772;-75
2022/07/14 07:26:47;;;;;;;17.15;11.40;;;17.40;99.90;;;19.67;92.52;98492.31;5021515;28;130014;-75
2022/07/14 07:29:16;;;;;;;13.13;9.13;;;17.60;99.90;;;20.01;90.26;98496.56;4989082;28;121741;-74
2022/07/14 07:31:44;;;;;;;12.27;9.35;;;17.80;99.90;;;20.25;88.14;98489.38;4986952;28;120398;-75
2022/07/14 07:34:13;;;;;;;14.05;9.77;;;17.80;99.90;;;20.71;85.52;98488.34;5002156;28;130102;-77
2022/07/14 07:36:42;;;;;;;10.23;7.45;;;18.10;99.90;;;20.83;83.08;98487.88;5005950;28;129858;-74
2022/07/14 07:39:10;;;;;;;12.90;8.80;;;17.70;99.90;;;21.08;82.64;98488.84;5017294;28;120102;-74
2022/07/14 07:41:39;;;;;;;14.43;8.68;;;18.20;99.90;;;21.25;82.42;98481.59;5023233;28;119258;-73
2022/07/14 07:44:09;;;;;;;14.35;8.27;;;18.40;99.90;;;21.08;82.82;98483.31;5006049;28;129115;-75
2022/07/14 07:46:38;;;;;;;12.18;7.57;;;18.20;99.90;;;20.77;83.95;98483.97;5020929;28;129923;-75
2022/07/14 07:49:07;;;;;;;13.77;8.68;;;18.20;99.90;;;20.81;84.62;98487.47;5021561;28;119370;-74
2022/07/14 07:51:36;;;;;;;14.95;8.13;;;18.10;99.90;;;21.05;82.64;98484.94;5006647;28;119549;-75
2022/07/14 07:54:05;;;;;;;11.27;7.13;;;18.40;99.90;;;20.98;82.97;98485.00;5018992;28;130099;-74
2022/07/14 07:56:33;;;;;;;12.25;7.70;;;18.40;99.90;;;21.04;83.92;98477.84;5023048;28;129365;-77
2022/07/14 07:59:02;;;;;;;10.48;7.13;;;18.40;99.90;;;20.94;82.69;98484.22;5003032;28;119631;-76
2022/07/14 08:01:32;;;;;;;10.73;7.25;;;18.00;99.90;;;21.08;84.46;98489.63;5020239;28;119351;-74
2022/07/14 08:04:00;;;;;;;13.55;7.93;;;18.50;99.90;;;21.81;81.11;98481.47;5006493;28;129016;-76
2022/07/14 08:06:29;;;;;;;17.50;7.10;;;19.30;99.90;;;22.12;79.09;98482.25;5007258;28;128495;-77
2022/07/14 08:08:57;;;;;;;11.32;7.00;;;19.30;99.90;;;22.45;75.72;98485.41;5023635;28;119282;-77
2022/07/14 08:11:26;;;;;;;19.00;11.77;;;19.00;99.90;;;22.52;75.08;98477.03;5007115;28;119216;-74
2022/07/14 08:13:55;;;;;;;21.42;13.82;;;19.20;99.90;;;22.43;77.42;98474.00;5021109;28;130367;-77
2022/07/14 08:16:23;;;;;;;13.73;8.27;;;19.50;99.90;;;22.33;77.24;98480.44;5021517;28;129598;-76
2022/07/14 08:18:53;;;;;;;14.90;7.88;;;19.20;99.90;;;22.08;78.48;98476.00;5021564;28;122384;-77
2022/07/14 08:21:23;;;;;;;13.65;8.63;;;19.50;99.90;;;21.72;78.77;98481.94;5023860;28;120753;-76
2022/07/14 08:23:52;;;;;;;13.27;7.32;;;19.20;99.90;;;21.39;80.49;98481.47;5021596;28;129843;-75
2022/07/14 08:26:21;;;;;;;12.40;7.35;;;18.90;99.90;;;21.14;83.24;98482.47;5015502;28;129810;-75
2022/07/14 08:28:49;;;;;;;16.90;11.20;;;19.00;99.90;;;20.87;84.67;98487.06;5021243;28;119904;-74
2022/07/14 08:31:19;;;;;;;34.90;19.73;;;18.50;99.90;;;20.81;87.14;98487.47;5021314;28;120017;-77
2022/07/14 08:33:48;;;;;;;16.17;9.13;;;18.70;99.90;;;21.15;84.20;98478.53;5021865;28;129875;-74
2022/07/14 08:36:18;;;;;;;10.30;6.63;;;19.00;99.90;;;21.49;82.33;98486.13;5005950;28;128775;-76
2022/07/14 08:38:47;;;;;;;8.25;6.13;;;19.40;99.90;;;21.79;80.21;98476.34;5006212;28;118550;-72
2022/07/14 08:41:15;;;;;;;11.73;6.97;;;19.60;99.90;;;22.33;77.93;98486.75;5002757;28;119458;-75
2022/07/14 08:43:45;;;;;;;16.10;9.60;;;19.60;99.90;;;22.34;78.96;98490.31;5004505;28;128886;-75
2022/07/14 08:46:15;;;;;;;15.60;9.63;;;19.60;99.90;;;22.13;78.17;98492.13;5019125;28;129082;-76
2022/07/14 08:48:44;;;;;;;12.57;6.25;;;19.50;99.90;;;22.46;76.82;98491.72;5006206;28;118717;-79
2022/07/14 08:51:13;;;;;;;8.93;6.47;;;19.90;99.90;;;22.99;73.45;98487.38;5020778;28;119392;-79
2022/07/14 08:53:45;;;;;;;8.35;5.93;;;19.90;99.90;;;22.86;73.03;98478.09;5020411;28;129973;-78
2022/07/14 08:56:13;;;;;;;10.68;6.03;;;19.30;99.90;;;22.72;75.79;98479.09;5022002;28;129355;-76
2022/07/14 08:58:44;;;;;;;20.00;12.15;;;20.00;99.90;;;22.66;73.79;98487.09;5021029;28;119715;-76
2022/07/14 09:01:13;;;;;;;10.45;7.72;;;19.80;99.90;;;22.40;74.50;98485.88;5020697;28;119935;-79
2022/07/14 09:03:42;;;;;;;9.80;5.38;;;19.30;99.90;;;22.40;74.19;98480.34;5004064;28;129315;-76
2022/07/14 09:06:10;;;;;;;9.43;5.72;;;19.30;99.90;;;22.69;74.35;98468.84;5020476;28;129426;-80
2022/07/14 09:08:57;;;;;;;9.45;5.65;;;19.70;99.90;;;22.96;72.42;98472.38;5019460;28;122236;-78
2022/07/14 09:11:25;;;;;;;;;;;20.10;99.90;;;22.67;76.47;98466.50;5021007;28;121789;-73
2022/07/14 09:13:54;;;;;;;10.82;7.60;;;20.20;99.90;;;23.13;74.62;98475.31;5020261;28;130093;-75
2022/07/14 09:16:24;;;;;;;18.50;10.95;;;20.70;99.90;;;23.21;71.79;98473.97;5019877;28;129407;-73
2022/07/14 09:19:08;;;;;;;9.10;5.10;;;20.40;99.90;;;23.18;70.63;98477.59;4988646;28;118196;-75
2022/07/14 09:21:39;;;;;;;8.93;4.90;;;20.40;99.90;;;23.39;70.45;98481.19;5005368;28;118688;-76
2022/07/14 09:24:11;;;;;;;8.82;5.45;;;20.50;99.90;;;23.62;69.88;98483.94;5018400;28;130418;-75
2022/07/14 09:26:44;;;;;;;7.45;3.97;;;21.00;99.90;;;23.72;70.15;98481.34;5001878;28;129423;-76
2022/07/14 09:29:23;;;;;;;8.23;4.80;;;21.10;99.90;;;24.10;68.60;98481.03;5020294;28;120263;-75
2022/07/14 09:31:52;;;;;;;11.45;7.30;;;21.70;99.90;;;24.26;65.71;98489.38;5020071;28;119483;-73
2022/07/14 09:34:32;;;;;;;6.82;4.57;;;21.40;99.90;;;23.77;65.60;98494.72;5018558;28;129907;-72
2022/07/14 09:37:15;;;;;;;7.57;5.13;;;20.50;99.90;;;23.49;66.22;98496.81;5019378;28;129750;-77
2022/07/14 09:40:02;;;;;;;8.10;4.53;;;20.60;99.90;;;23.45;67.66;98496.91;4988602;28;118890;-77
2022/07/14 09:42:55;;;;;;;8.20;5.05;;;21.00;99.90;;;23.50;67.64;98498.41;5019864;28;120012;-77
2022/07/14 09:45:27;;;;;;;7.13;3.80;;;20.90;99.90;;;23.76;67.74;98501.47;5004464;28;129717;-76
2022/07/14 09:48:03;;;;;;;7.07;3.80;;;21.00;99.90;;;23.45;67.85;98491.38;5021217;27;129489;-78
2022/07/14 09:50:34;;;;;;;;;;;20.80;99.90;;;23.33;69.77;98491.97;5024018;28;119984;-76
2022/07/14 09:53:19;;;;;;;9.32;5.40;;;20.80;99.90;;;23.68;68.12;98496.09;5023988;28;119861;-75
2022/07/14 09:55:58;;;;;;;6.53;3.87;;;21.40;99.90;;;24.57;66.19;98489.16;5024017;28;130343;-77
2022/07/14 09:58:31;;;;;;;6.15;3.90;;;22.30;99.90;;;25.18;62.50;98492.47;4991545;28;130848;-74
2022/07/14 10:01:03;;;;;;;4.82;3.20;;;22.50;99.90;;;25.16;60.52;98490.13;4989923;28;120846;-77
2022/07/14 10:03:34;;;;;;;9.77;3.55;;;22.00;99.90;;;25.02;61.27;98496.81;5021619;28;121853;-75
2022/07/14 10:06:05;;;;;;;6.40;4.00;;;22.10;99.90;;;24.89;61.54;98487.63;5017527;28;130097;-73
2022/07/14 10:08:37;;;;;;;6.88;3.83;;;21.70;99.90;;;24.46;61.31;98500.44;4959366;28;129252;-77
2022/07/14 10:11:08;;;;;;;8.32;4.05;;;21.40;99.90;;;24.28;63.33;98488.97;4998290;28;119212;-74
2022/07/14 10:13:38;;;;;;;7.80;3.47;;;21.20;99.90;;;24.20;62.92;98496.69;4981017;28;119036;-76
2022/07/14 10:16:08;;;;;;;4.28;2.90;;;21.60;99.90;;;24.18;61.98;98496.31;4988135;28;128878;-77
2022/07/14 10:18:38;;;;;;;6.55;3.22;;;21.50;99.90;;;24.46;62.50;98483.03;5001788;28;129740;-76
2022/07/14 10:21:07;;;;;;;6.93;3.20;;;22.00;99.90;;;24.84;61.33;98477.03;5002862;28;120385;-76
2022/07/14 10:23:38;;;;;;;7.40;3.80;;;22.40;99.90;;;25.20;59.97;98484.50;5002933;28;119470;-75
2022/07/14 10:26:10;;;;;;;5.40;3.17;;;22.50;99.90;;;25.48;57.50;98483.78;4986176;28;129573;-74